La Suprema — IBIL — position and weather

sailwx.info

Track history (hours):
 
Tides and Currents Weather Stations Pressure Air Temp Water Temp Dewpoint Dewpoint Depression Visibility Wind Speed Wind Dir Waves Ship Positions

La Suprema

Last reported at 2017-Jun-26 22:51 UTC. Time now 2017-Jun-27 03:30 UTC.
Position N 41°03' E 009°54'.

Length 211 m; draft 7.2 m.

Type: Passenger vessel. MMSI: 247083700.

Date/timePositionNaut miles runAvg speedWind from/ knotsBaromVisibWave heightAir tempDewpointWater temp
2017-Jun-26 22:51N 41°03' E 009°54'1723.7
2017-Jun-26 22:09N 41°20' E 009°51'423.8
2017-Jun-26 22:01N 41°23' E 009°51'4123.8
2017-Jun-26 20:18N 42°04' E 009°45'723.8
2017-Jun-26 20:00N 42°10' E 009°44'1122.7
2017-Jun-26 19:31N 42°22' E 009°42'1325.7
2017-Jun-26 19:01N 42°34' E 009°40'1325.8
2017-Jun-26 18:31N 42°47' E 009°38'1326.0
2017-Jun-26 18:01N 43°00' E 009°35'1525.9
2017-Jun-26 17:27N 43°14' E 009°30'1125.5
2017-Jun-26 17:00N 43°24' E 009°24'1325.4
2017-Jun-26 16:31N 43°36' E 009°18'1325.1
2017-Jun-26 16:00N 43°48' E 009°13'1325.3
2017-Jun-26 15:30N 44°00' E 009°07'1325.4
2017-Jun-26 15:01N 44°12' E 009°01'1223.4
2017-Jun-26 14:31N 44°23' E 008°56'2 1.6
2017-Jun-26 13:27N 44°24' E 008°55'0 0.0
2017-Jun-26 12:50N 44°24' E 008°55'0 0.0
2017-Jun-26 12:29N 44°24' E 008°55'0 0.0
2017-Jun-26 11:59N 44°24' E 008°55'0 0.0
2017-Jun-26 11:29N 44°24' E 008°55'0 0.0
2017-Jun-26 10:56N 44°24' E 008°55'0 0.0
2017-Jun-26 10:22N 44°24' E 008°55'0 0.0
2017-Jun-26 09:58N 44°24' E 008°55'0 0.0
2017-Jun-26 09:28N 44°24' E 008°55'0 0.0
2017-Jun-26 08:58N 44°24' E 008°55'1 2.1
2017-Jun-26 08:30N 44°24' E 008°56'714.5
2017-Jun-26 08:00N 44°17' E 009°01'1223.9
2017-Jun-26 07:30N 44°06' E 009°07'1223.9
2017-Jun-26 07:01N 43°55' E 009°13'1224.1
2017-Jun-26 06:31N 43°44' E 009°19'1224.0
2017-Jun-26 06:01N 43°33' E 009°25'1223.8
2017-Jun-26 05:31N 43°21' E 009°29'27423.9
2017-Jun-25 18:01N 38°49' E 010°17'125.6
2017-Jun-25 17:59N 38°48' E 010°17'107 9.6
2017-Jun-25 06:46N 37°01' E 010°27'2321.8
2017-Jun-25 05:43N 37°24' E 010°29'622.2
2017-Jun-25 05:27N 37°30' E 010°28'1222.3
2017-Jun-25 04:54N 37°42' E 010°25'4122.4
2017-Jun-25 03:05N 38°23' E 010°18'22422.3
2017-Jun-24 17:01N 42°05' E 009°45'122.4
2017-Jun-24 16:58N 42°06' E 009°45'1022.4
2017-Jun-24 16:31N 42°16' E 009°43'1122.2
2017-Jun-24 16:01N 42°27' E 009°41'1122.2
2017-Jun-24 15:30N 42°39' E 009°39'2122.3
2017-Jun-24 14:33N 42°60' E 009°35'1222.0
2017-Jun-24 14:00N 43°11' E 009°30'1121.9
2017-Jun-24 13:30N 43°21' E 009°26'1121.8
2017-Jun-24 13:01N 43°32' E 009°21'1121.7
2017-Jun-24 12:31N 43°42' E 009°16'1121.7
2017-Jun-24 12:01N 43°52' E 009°11'1121.9
2017-Jun-24 11:31N 44°03' E 009°06'1122.0
2017-Jun-24 11:01N 44°13' E 009°01'1020.9
2017-Jun-24 10:31N 44°23' E 008°57'2 3.4
2017-Jun-24 09:55N 44°24' E 008°55'0 0.0
2017-Jun-24 09:30N 44°24' E 008°55'0 0.0
2017-Jun-24 09:00N 44°24' E 008°55'0 0.0
2017-Jun-24 08:24N 44°24' E 008°55'0 0.0
2017-Jun-24 07:57N 44°24' E 008°55'0 0.0
2017-Jun-24 07:30N 44°24' E 008°55'0 0.0
2017-Jun-24 06:56N 44°24' E 008°55'0 0.0
2017-Jun-24 06:29N 44°24' E 008°55'0 0.0
2017-Jun-24 05:56N 44°24' E 008°55'0 0.0
2017-Jun-24 05:29N 44°24' E 008°55'0 0.0
2017-Jun-24 04:58N 44°24' E 008°55'0 0.0
2017-Jun-24 04:25N 44°24' E 008°55'0 0.0
2017-Jun-24 03:58N 44°24' E 008°55'0 0.0
2017-Jun-24 03:25N 44°24' E 008°55'0 0.0
2017-Jun-24 02:58N 44°24' E 008°55'0 0.0
2017-Jun-24 02:30N 44°24' E 008°55'0 0.0
2017-Jun-24 02:00N 44°24' E 008°55'0 0.0
2017-Jun-24 01:27N 44°24' E 008°55'0 0.0
2017-Jun-24 01:00N 44°24' E 008°55'0 0.0
2017-Jun-24 00:27N 44°24' E 008°55'0 0.0
2017-Jun-23 23:59N 44°24' E 008°55'0 0.0
2017-Jun-23 23:29N 44°24' E 008°55'0 0.0
2017-Jun-23 22:56N 44°24' E 008°55'0 0.0
2017-Jun-23 22:29N 44°24' E 008°55'0 0.0
2017-Jun-23 21:58N 44°24' E 008°55'0 0.0
2017-Jun-23 21:28N 44°24' E 008°55'0 0.0
2017-Jun-23 20:58N 44°24' E 008°55'0 0.0
2017-Jun-23 20:28N 44°24' E 008°55'0 0.0
2017-Jun-23 19:58N 44°24' E 008°55'0 0.0
2017-Jun-23 19:30N 44°24' E 008°55'0 0.0
2017-Jun-23 19:00N 44°24' E 008°55'0 0.0
2017-Jun-23 18:27N 44°24' E 008°55'0 0.0
2017-Jun-23 17:57N 44°24' E 008°55'0 0.0
2017-Jun-23 17:29N 44°24' E 008°55'0 0.0
2017-Jun-23 16:59N 44°24' E 008°55'0 0.0
2017-Jun-23 16:29N 44°24' E 008°55'0 0.0
2017-Jun-23 15:59N 44°24' E 008°55'0 0.0
2017-Jun-23 15:30N 44°24' E 008°55'2 3.0
2017-Jun-23 15:00N 44°23' E 008°56'2119.9
2017-Jun-23 13:57N 44°04' E 009°08'1022.6
2017-Jun-23 13:30N 43°55' E 009°13'1122.7
2017-Jun-23 13:01N 43°44' E 009°19'1122.5
2017-Jun-23 12:30N 43°33' E 009°24'1122.3
2017-Jun-23 12:01N 43°23' E 009°29'1122.4
2017-Jun-23 11:30N 43°12' E 009°34'1122.6
2017-Jun-23 11:00N 43°01' E 009°39'1122.6
2017-Jun-23 10:30N 42°50' E 009°43'1222.4
2017-Jun-23 09:58N 42°39' E 009°46'3222.3
2017-Jun-23 08:31N 42°07' E 009°50'122.0
2017-Jun-23 08:30N 42°06' E 009°50'1122.3
2017-Jun-23 08:00N 41°55' E 009°52'2921.9
2017-Jun-23 06:40N 41°27' E 009°59'421.7
2017-Jun-23 06:31N 41°23' E 009°60'15922.2
2017-Jun-22 23:20N 38°44' E 010°18'1322.7
2017-Jun-22 22:47N 38°32' E 010°20'922.5
2017-Jun-22 22:23N 38°23' E 010°21'922.4
2017-Jun-22 22:00N 38°14' E 010°22'1122.3
2017-Jun-22 21:29N 38°03' E 010°24'1522.3
2017-Jun-22 20:50N 37°49' E 010°28'721.9
2017-Jun-22 20:30N 37°41' E 010°29'1322.3
2017-Jun-22 19:55N 37°29' E 010°29'922.7
2017-Jun-22 19:31N 37°19' E 010°30'52 4.8
2017-Jun-22 08:49N 38°11' E 010°22'825.1
2017-Jun-22 08:30N 38°18' E 010°21'2825.2
2017-Jun-22 07:25N 38°46' E 010°16'5525.1
2017-Jun-22 05:13N 39°40' E 010°08'725.2
2017-Jun-22 04:56N 39°48' E 010°07'12925.4
2017-Jun-21 23:52N 41°55' E 009°46'1125.6
2017-Jun-21 23:27N 42°06' E 009°44'1125.4
2017-Jun-21 23:00N 42°17' E 009°43'1325.4
2017-Jun-21 22:30N 42°30' E 009°41'2125.3
2017-Jun-21 21:42N 42°50' E 009°37'525.2
2017-Jun-21 21:30N 42°55' E 009°36'1225.0
2017-Jun-21 21:01N 43°07' E 009°33'1325.4
2017-Jun-21 20:31N 43°19' E 009°27'1325.5
2017-Jun-21 20:01N 43°31' E 009°21'1325.2
2017-Jun-21 19:31N 43°43' E 009°16'1325.2
2017-Jun-21 19:01N 43°55' E 009°10'1325.5
2017-Jun-21 18:31N 44°07' E 009°05'1325.6
2017-Jun-21 18:01N 44°19' E 008°58'610.3
2017-Jun-21 17:26N 44°24' E 008°55'0 0.0
2017-Jun-21 16:59N 44°24' E 008°55'0 0.0
2017-Jun-21 16:28N 44°24' E 008°55'0 0.0
2017-Jun-21 15:55N 44°24' E 008°55'0 0.0
2017-Jun-21 15:25N 44°24' E 008°55'0 0.0
2017-Jun-21 14:55N 44°24' E 008°55'0 0.0
2017-Jun-21 14:25N 44°24' E 008°55'0 0.0
2017-Jun-21 13:24N 44°24' E 008°55'0 0.0
2017-Jun-21 12:57N 44°24' E 008°55'0 0.0
2017-Jun-21 12:30N 44°24' E 008°55'1 1.9
2017-Jun-21 12:00N 44°24' E 008°56'815.2
2017-Jun-21 11:31N 44°17' E 009°01'1223.0
2017-Jun-21 11:00N 44°06' E 009°07'1223.5
2017-Jun-21 10:31N 43°55' E 009°12'1223.8
2017-Jun-21 10:01N 43°44' E 009°18'1223.8
2017-Jun-21 09:30N 43°33' E 009°23'1223.6
2017-Jun-21 09:01N 43°22' E 009°29'1223.5
2017-Jun-21 08:30N 43°11' E 009°35'1223.5
2017-Jun-21 08:00N 42°60' E 009°40'9123.1
2017-Jun-21 04:05N 41°30' E 009°55'222.3
2017-Jun-21 04:00N 41°28' E 009°55'7622.9
2017-Jun-21 00:41N 40°12' E 010°05'623.2
2017-Jun-21 00:26N 40°07' E 010°06'1123.2
2017-Jun-20 23:57N 39°55' E 010°08'1023.2
2017-Jun-20 23:30N 39°45' E 010°10'6523.3
2017-Jun-20 20:42N 38°40' E 010°18'523.2
2017-Jun-20 20:29N 38°35' E 010°19'2223.2
2017-Jun-20 19:33N 38°14' E 010°22'123.1
2017-Jun-20 19:30N 38°13' E 010°22'1223.2
2017-Jun-20 18:59N 38°01' E 010°24'1323.5
2017-Jun-20 18:27N 37°48' E 010°25'1023.6
2017-Jun-20 18:00N 37°38' E 010°27'27112.1
2017-Jun-19 19:36N 42°07' E 009°44'223.0
2017-Jun-19 19:30N 42°09' E 009°44'1722.9
2017-Jun-19 18:45N 42°27' E 009°41'625.7
2017-Jun-19 18:30N 42°33' E 009°40'1325.7
2017-Jun-19 18:00N 42°46' E 009°38'1325.6
2017-Jun-19 17:31N 42°58' E 009°36'1325.6
2017-Jun-19 17:01N 43°10' E 009°31'1326.3
2017-Jun-19 16:31N 43°23' E 009°25'1326.1
2017-Jun-19 16:01N 43°35' E 009°19'1325.7
2017-Jun-19 15:31N 43°47' E 009°13'1325.7
2017-Jun-19 15:01N 43°59' E 009°07'2525.0
2017-Jun-19 14:00N 44°23' E 008°57'2 3.8
2017-Jun-19 13:30N 44°24' E 008°55'0 0.0
2017-Jun-19 12:59N 44°24' E 008°55'0 0.0
2017-Jun-19 12:29N 44°24' E 008°55'0 0.0
2017-Jun-19 11:56N 44°24' E 008°55'0 0.0
2017-Jun-19 11:29N 44°24' E 008°55'0 0.0
2017-Jun-19 10:58N 44°24' E 008°55'0 0.0
2017-Jun-19 10:28N 44°24' E 008°55'0 0.0
2017-Jun-19 09:58N 44°24' E 008°55'0 0.0
2017-Jun-19 09:28N 44°24' E 008°55'0 0.2
2017-Jun-19 09:01N 44°24' E 008°55'3 5.1
2017-Jun-19 08:31N 44°23' E 008°58'1019.8
2017-Jun-19 08:00N 44°13' E 009°02'1122.3
2017-Jun-19 07:31N 44°03' E 009°08'1122.8
2017-Jun-19 07:01N 43°52' E 009°14'1223.6
2017-Jun-19 06:30N 43°41' E 009°19'1223.7
2017-Jun-19 06:00N 43°30' E 009°25'1223.4
2017-Jun-19 05:31N 43°19' E 009°30'1223.2
2017-Jun-19 05:00N 43°08' E 009°36'160 4.9
2017-Jun-17 20:21N 40°29' E 010°00'8922.9
2017-Jun-17 16:28N 41°58' E 009°46'1123.1
2017-Jun-17 16:01N 42°08' E 009°44'1323.1
2017-Jun-17 15:27N 42°21' E 009°42'1022.9
2017-Jun-17 15:00N 42°31' E 009°40'2323.0
2017-Jun-17 14:00N 42°54' E 009°36'1122.8
2017-Jun-17 13:30N 43°05' E 009°34'1122.9
2017-Jun-17 13:01N 43°16' E 009°29'1122.8
2017-Jun-17 12:30N 43°27' E 009°23'1122.5
2017-Jun-17 12:00N 43°37' E 009°18'1122.4
2017-Jun-17 11:30N 43°48' E 009°13'1122.6
2017-Jun-17 11:00N 43°58' E 009°08'1122.9
2017-Jun-17 10:30N 44°09' E 009°03'1122.9
2017-Jun-17 10:00N 44°20' E 008°58'5 8.9
2017-Jun-17 09:28N 44°24' E 008°55'0 0.0
2017-Jun-17 08:55N 44°24' E 008°55'0 0.0
2017-Jun-17 08:25N 44°24' E 008°55'0 0.0
2017-Jun-17 08:00N 44°24' E 008°55'0 0.0
2017-Jun-17 07:30N 44°24' E 008°55'0 0.0
2017-Jun-17 07:00N 44°24' E 008°55'0 0.0
2017-Jun-17 06:30N 44°24' E 008°55'0 0.0
2017-Jun-17 06:00N 44°24' E 008°55'0 0.0
2017-Jun-17 05:29N 44°24' E 008°55'0 0.0
2017-Jun-17 04:59N 44°24' E 008°55'0 0.0
2017-Jun-17 04:29N 44°24' E 008°55'0 0.0
2017-Jun-17 03:53N 44°24' E 008°55'0 0.0
2017-Jun-17 03:28N 44°24' E 008°55'0 0.0
2017-Jun-17 02:58N 44°24' E 008°55'0 0.0
2017-Jun-17 02:28N 44°24' E 008°55'0 0.0
2017-Jun-17 01:58N 44°24' E 008°55'0 0.0
2017-Jun-17 01:28N 44°24' E 008°55'0 0.0
2017-Jun-17 01:00N 44°24' E 008°55'0 0.0
2017-Jun-17 00:30N 44°24' E 008°55'0 0.0
2017-Jun-16 23:57N 44°24' E 008°55'0 0.0
2017-Jun-16 23:24N 44°24' E 008°55'0 0.0
2017-Jun-16 22:56N 44°24' E 008°55'  
Track history (hours):
 
Tides and Currents Weather Stations Pressure Air Temp Water Temp Dewpoint Dewpoint Depression Visibility Wind Speed Wind Dir Waves Ship Positions

La Suprema

Last reported at 2017-Jun-26 22:51 UTC. Time now 2017-Jun-27 03:30 UTC.
Position N 41°03' E 009°54'.

Length 211 m; draft 7.2 m.

Type: Passenger vessel. MMSI: 247083700.

Date/timePositionNaut miles runAvg speedWind from/ knotsBaromVisibWave heightAir tempDewpointWater temp
2017-Jun-26 22:51N 41°03' E 009°54'1723.7
2017-Jun-26 22:09N 41°20' E 009°51'423.8
2017-Jun-26 22:01N 41°23' E 009°51'4123.8
2017-Jun-26 20:18N 42°04' E 009°45'723.8
2017-Jun-26 20:00N 42°10' E 009°44'1122.7
2017-Jun-26 19:31N 42°22' E 009°42'1325.7
2017-Jun-26 19:01N 42°34' E 009°40'1325.8
2017-Jun-26 18:31N 42°47' E 009°38'1326.0
2017-Jun-26 18:01N 43°00' E 009°35'1525.9
2017-Jun-26 17:27N 43°14' E 009°30'1125.5
2017-Jun-26 17:00N 43°24' E 009°24'1325.4
2017-Jun-26 16:31N 43°36' E 009°18'1325.1
2017-Jun-26 16:00N 43°48' E 009°13'1325.3
2017-Jun-26 15:30N 44°00' E 009°07'1325.4
2017-Jun-26 15:01N 44°12' E 009°01'1223.4
2017-Jun-26 14:31N 44°23' E 008°56'2 1.6
2017-Jun-26 13:27N 44°24' E 008°55'0 0.0
2017-Jun-26 12:50N 44°24' E 008°55'0 0.0
2017-Jun-26 12:29N 44°24' E 008°55'0 0.0
2017-Jun-26 11:59N 44°24' E 008°55'0 0.0
2017-Jun-26 11:29N 44°24' E 008°55'0 0.0
2017-Jun-26 10:56N 44°24' E 008°55'0 0.0
2017-Jun-26 10:22N 44°24' E 008°55'0 0.0
2017-Jun-26 09:58N 44°24' E 008°55'0 0.0
2017-Jun-26 09:28N 44°24' E 008°55'0 0.0
2017-Jun-26 08:58N 44°24' E 008°55'1 2.1
2017-Jun-26 08:30N 44°24' E 008°56'714.5
2017-Jun-26 08:00N 44°17' E 009°01'1223.9
2017-Jun-26 07:30N 44°06' E 009°07'1223.9
2017-Jun-26 07:01N 43°55' E 009°13'1224.1
2017-Jun-26 06:31N 43°44' E 009°19'1224.0
2017-Jun-26 06:01N 43°33' E 009°25'1223.8
2017-Jun-26 05:31N 43°21' E 009°29'27423.9
2017-Jun-25 18:01N 38°49' E 010°17'125.6
2017-Jun-25 17:59N 38°48' E 010°17'107 9.6
2017-Jun-25 06:46N 37°01' E 010°27'2321.8
2017-Jun-25 05:43N 37°24' E 010°29'622.2
2017-Jun-25 05:27N 37°30' E 010°28'1222.3
2017-Jun-25 04:54N 37°42' E 010°25'4122.4
2017-Jun-25 03:05N 38°23' E 010°18'22422.3
2017-Jun-24 17:01N 42°05' E 009°45'122.4
2017-Jun-24 16:58N 42°06' E 009°45'1022.4
2017-Jun-24 16:31N 42°16' E 009°43'1122.2
2017-Jun-24 16:01N 42°27' E 009°41'1122.2
2017-Jun-24 15:30N 42°39' E 009°39'2122.3
2017-Jun-24 14:33N 42°60' E 009°35'1222.0
2017-Jun-24 14:00N 43°11' E 009°30'1121.9
2017-Jun-24 13:30N 43°21' E 009°26'1121.8
2017-Jun-24 13:01N 43°32' E 009°21'1121.7
2017-Jun-24 12:31N 43°42' E 009°16'1121.7
2017-Jun-24 12:01N 43°52' E 009°11'1121.9
2017-Jun-24 11:31N 44°03' E 009°06'1122.0
2017-Jun-24 11:01N 44°13' E 009°01'1020.9
2017-Jun-24 10:31N 44°23' E 008°57'2 3.4
2017-Jun-24 09:55N 44°24' E 008°55'0 0.0
2017-Jun-24 09:30N 44°24' E 008°55'0 0.0
2017-Jun-24 09:00N 44°24' E 008°55'0 0.0
2017-Jun-24 08:24N 44°24' E 008°55'0 0.0
2017-Jun-24 07:57N 44°24' E 008°55'0 0.0
2017-Jun-24 07:30N 44°24' E 008°55'0 0.0
2017-Jun-24 06:56N 44°24' E 008°55'0 0.0
2017-Jun-24 06:29N 44°24' E 008°55'0 0.0
2017-Jun-24 05:56N 44°24' E 008°55'0 0.0
2017-Jun-24 05:29N 44°24' E 008°55'0 0.0
2017-Jun-24 04:58N 44°24' E 008°55'0 0.0
2017-Jun-24 04:25N 44°24' E 008°55'0 0.0
2017-Jun-24 03:58N 44°24' E 008°55'0 0.0
2017-Jun-24 03:25N 44°24' E 008°55'0 0.0
2017-Jun-24 02:58N 44°24' E 008°55'0 0.0
2017-Jun-24 02:30N 44°24' E 008°55'0 0.0
2017-Jun-24 02:00N 44°24' E 008°55'0 0.0
2017-Jun-24 01:27N 44°24' E 008°55'0 0.0
2017-Jun-24 01:00N 44°24' E 008°55'0 0.0
2017-Jun-24 00:27N 44°24' E 008°55'0 0.0
2017-Jun-23 23:59N 44°24' E 008°55'0 0.0
2017-Jun-23 23:29N 44°24' E 008°55'0 0.0
2017-Jun-23 22:56N 44°24' E 008°55'0 0.0
2017-Jun-23 22:29N 44°24' E 008°55'0 0.0
2017-Jun-23 21:58N 44°24' E 008°55'0 0.0
2017-Jun-23 21:28N 44°24' E 008°55'0 0.0
2017-Jun-23 20:58N 44°24' E 008°55'0 0.0
2017-Jun-23 20:28N 44°24' E 008°55'0 0.0
2017-Jun-23 19:58N 44°24' E 008°55'0 0.0
2017-Jun-23 19:30N 44°24' E 008°55'0 0.0
2017-Jun-23 19:00N 44°24' E 008°55'0 0.0
2017-Jun-23 18:27N 44°24' E 008°55'0 0.0
2017-Jun-23 17:57N 44°24' E 008°55'0 0.0
2017-Jun-23 17:29N 44°24' E 008°55'0 0.0
2017-Jun-23 16:59N 44°24' E 008°55'0 0.0
2017-Jun-23 16:29N 44°24' E 008°55'0 0.0
2017-Jun-23 15:59N 44°24' E 008°55'0 0.0
2017-Jun-23 15:30N 44°24' E 008°55'2 3.0
2017-Jun-23 15:00N 44°23' E 008°56'2119.9
2017-Jun-23 13:57N 44°04' E 009°08'1022.6
2017-Jun-23 13:30N 43°55' E 009°13'1122.7
2017-Jun-23 13:01N 43°44' E 009°19'1122.5
2017-Jun-23 12:30N 43°33' E 009°24'1122.3
2017-Jun-23 12:01N 43°23' E 009°29'1122.4
2017-Jun-23 11:30N 43°12' E 009°34'1122.6
2017-Jun-23 11:00N 43°01' E 009°39'1122.6
2017-Jun-23 10:30N 42°50' E 009°43'1222.4
2017-Jun-23 09:58N 42°39' E 009°46'3222.3
2017-Jun-23 08:31N 42°07' E 009°50'122.0
2017-Jun-23 08:30N 42°06' E 009°50'1122.3
2017-Jun-23 08:00N 41°55' E 009°52'2921.9
2017-Jun-23 06:40N 41°27' E 009°59'421.7
2017-Jun-23 06:31N 41°23' E 009°60'15922.2
2017-Jun-22 23:20N 38°44' E 010°18'1322.7
2017-Jun-22 22:47N 38°32' E 010°20'922.5
2017-Jun-22 22:23N 38°23' E 010°21'922.4
2017-Jun-22 22:00N 38°14' E 010°22'1122.3
2017-Jun-22 21:29N 38°03' E 010°24'1522.3
2017-Jun-22 20:50N 37°49' E 010°28'721.9
2017-Jun-22 20:30N 37°41' E 010°29'1322.3
2017-Jun-22 19:55N 37°29' E 010°29'922.7
2017-Jun-22 19:31N 37°19' E 010°30'52 4.8
2017-Jun-22 08:49N 38°11' E 010°22'825.1
2017-Jun-22 08:30N 38°18' E 010°21'2825.2
2017-Jun-22 07:25N 38°46' E 010°16'5525.1
2017-Jun-22 05:13N 39°40' E 010°08'725.2
2017-Jun-22 04:56N 39°48' E 010°07'12925.4
2017-Jun-21 23:52N 41°55' E 009°46'1125.6
2017-Jun-21 23:27N 42°06' E 009°44'1125.4
2017-Jun-21 23:00N 42°17' E 009°43'1325.4
2017-Jun-21 22:30N 42°30' E 009°41'2125.3
2017-Jun-21 21:42N 42°50' E 009°37'525.2
2017-Jun-21 21:30N 42°55' E 009°36'1225.0
2017-Jun-21 21:01N 43°07' E 009°33'1325.4
2017-Jun-21 20:31N 43°19' E 009°27'1325.5
2017-Jun-21 20:01N 43°31' E 009°21'1325.2
2017-Jun-21 19:31N 43°43' E 009°16'1325.2
2017-Jun-21 19:01N 43°55' E 009°10'1325.5
2017-Jun-21 18:31N 44°07' E 009°05'1325.6
2017-Jun-21 18:01N 44°19' E 008°58'610.3
2017-Jun-21 17:26N 44°24' E 008°55'0 0.0
2017-Jun-21 16:59N 44°24' E 008°55'0 0.0
2017-Jun-21 16:28N 44°24' E 008°55'0 0.0
2017-Jun-21 15:55N 44°24' E 008°55'0 0.0
2017-Jun-21 15:25N 44°24' E 008°55'0 0.0
2017-Jun-21 14:55N 44°24' E 008°55'0 0.0
2017-Jun-21 14:25N 44°24' E 008°55'0 0.0
2017-Jun-21 13:24N 44°24' E 008°55'0 0.0
2017-Jun-21 12:57N 44°24' E 008°55'0 0.0
2017-Jun-21 12:30N 44°24' E 008°55'1 1.9
2017-Jun-21 12:00N 44°24' E 008°56'815.2
2017-Jun-21 11:31N 44°17' E 009°01'1223.0
2017-Jun-21 11:00N 44°06' E 009°07'1223.5
2017-Jun-21 10:31N 43°55' E 009°12'1223.8
2017-Jun-21 10:01N 43°44' E 009°18'1223.8
2017-Jun-21 09:30N 43°33' E 009°23'1223.6
2017-Jun-21 09:01N 43°22' E 009°29'1223.5
2017-Jun-21 08:30N 43°11' E 009°35'1223.5
2017-Jun-21 08:00N 42°60' E 009°40'9123.1
2017-Jun-21 04:05N 41°30' E 009°55'222.3
2017-Jun-21 04:00N 41°28' E 009°55'7622.9
2017-Jun-21 00:41N 40°12' E 010°05'623.2
2017-Jun-21 00:26N 40°07' E 010°06'1123.2
2017-Jun-20 23:57N 39°55' E 010°08'1023.2
2017-Jun-20 23:30N 39°45' E 010°10'6523.3
2017-Jun-20 20:42N 38°40' E 010°18'523.2
2017-Jun-20 20:29N 38°35' E 010°19'2223.2
2017-Jun-20 19:33N 38°14' E 010°22'123.1
2017-Jun-20 19:30N 38°13' E 010°22'1223.2
2017-Jun-20 18:59N 38°01' E 010°24'1323.5
2017-Jun-20 18:27N 37°48' E 010°25'1023.6
2017-Jun-20 18:00N 37°38' E 010°27'27112.1
2017-Jun-19 19:36N 42°07' E 009°44'223.0
2017-Jun-19 19:30N 42°09' E 009°44'1722.9
2017-Jun-19 18:45N 42°27' E 009°41'625.7
2017-Jun-19 18:30N 42°33' E 009°40'1325.7
2017-Jun-19 18:00N 42°46' E 009°38'1325.6
2017-Jun-19 17:31N 42°58' E 009°36'1325.6
2017-Jun-19 17:01N 43°10' E 009°31'1326.3
2017-Jun-19 16:31N 43°23' E 009°25'1326.1
2017-Jun-19 16:01N 43°35' E 009°19'1325.7
2017-Jun-19 15:31N 43°47' E 009°13'1325.7
2017-Jun-19 15:01N 43°59' E 009°07'2525.0
2017-Jun-19 14:00N 44°23' E 008°57'2 3.8
2017-Jun-19 13:30N 44°24' E 008°55'0 0.0
2017-Jun-19 12:59N 44°24' E 008°55'0 0.0
2017-Jun-19 12:29N 44°24' E 008°55'0 0.0
2017-Jun-19 11:56N 44°24' E 008°55'0 0.0
2017-Jun-19 11:29N 44°24' E 008°55'0 0.0
2017-Jun-19 10:58N 44°24' E 008°55'0 0.0
2017-Jun-19 10:28N 44°24' E 008°55'0 0.0
2017-Jun-19 09:58N 44°24' E 008°55'0 0.0
2017-Jun-19 09:28N 44°24' E 008°55'0 0.2
2017-Jun-19 09:01N 44°24' E 008°55'3 5.1
2017-Jun-19 08:31N 44°23' E 008°58'1019.8
2017-Jun-19 08:00N 44°13' E 009°02'1122.3
2017-Jun-19 07:31N 44°03' E 009°08'1122.8
2017-Jun-19 07:01N 43°52' E 009°14'1223.6
2017-Jun-19 06:30N 43°41' E 009°19'1223.7
2017-Jun-19 06:00N 43°30' E 009°25'1223.4
2017-Jun-19 05:31N 43°19' E 009°30'1223.2
2017-Jun-19 05:00N 43°08' E 009°36'160 4.9
2017-Jun-17 20:21N 40°29' E 010°00'8922.9
2017-Jun-17 16:28N 41°58' E 009°46'1123.1
2017-Jun-17 16:01N 42°08' E 009°44'1323.1
2017-Jun-17 15:27N 42°21' E 009°42'1022.9
2017-Jun-17 15:00N 42°31' E 009°40'2323.0
2017-Jun-17 14:00N 42°54' E 009°36'1122.8
2017-Jun-17 13:30N 43°05' E 009°34'1122.9
2017-Jun-17 13:01N 43°16' E 009°29'1122.8
2017-Jun-17 12:30N 43°27' E 009°23'1122.5
2017-Jun-17 12:00N 43°37' E 009°18'1122.4
2017-Jun-17 11:30N 43°48' E 009°13'1122.6
2017-Jun-17 11:00N 43°58' E 009°08'1122.9
2017-Jun-17 10:30N 44°09' E 009°03'1122.9
2017-Jun-17 10:00N 44°20' E 008°58'5 8.9
2017-Jun-17 09:28N 44°24' E 008°55'0 0.0
2017-Jun-17 08:55N 44°24' E 008°55'0 0.0
2017-Jun-17 08:25N 44°24' E 008°55'0 0.0
2017-Jun-17 08:00N 44°24' E 008°55'0 0.0
2017-Jun-17 07:30N 44°24' E 008°55'0 0.0
2017-Jun-17 07:00N 44°24' E 008°55'0 0.0
2017-Jun-17 06:30N 44°24' E 008°55'0 0.0
2017-Jun-17 06:00N 44°24' E 008°55'0 0.0
2017-Jun-17 05:29N 44°24' E 008°55'0 0.0
2017-Jun-17 04:59N 44°24' E 008°55'0 0.0
2017-Jun-17 04:29N 44°24' E 008°55'0 0.0
2017-Jun-17 03:53N 44°24' E 008°55'0 0.0
2017-Jun-17 03:28N 44°24' E 008°55'0 0.0
2017-Jun-17 02:58N 44°24' E 008°55'0 0.0
2017-Jun-17 02:28N 44°24' E 008°55'0 0.0
2017-Jun-17 01:58N 44°24' E 008°55'0 0.0
2017-Jun-17 01:28N 44°24' E 008°55'0 0.0
2017-Jun-17 01:00N 44°24' E 008°55'0 0.0
2017-Jun-17 00:30N 44°24' E 008°55'0 0.0
2017-Jun-16 23:57N 44°24' E 008°55'0 0.0
2017-Jun-16 23:24N 44°24' E 008°55'0 0.0
2017-Jun-16 22:56N 44°24' E 008°55'  

Dump ship's entire track history